| time (UTC) | temp C | wind direction | speed KPH | gust KPH | rain 1hr cm | rain 24hr cm | rain mn cm | humidity % | barometer mb |
| 20260503013054 | 18 | 93 | 6.4 | 12.9 | 0.00 | 0.00 | 0.00 | 33 | 1015.0 |
| 20260503011602 | 18 | 72 | 4.8 | 11.3 | 0.00 | 0.00 | 0.00 | 32 | 1015.1 |
| 20260503004606 | 18 | 88 | 1.6 | 6.4 | 0.00 | 0.00 | 0.00 | 32 | 1015.3 |
| 20260503003117 | 19 | 151 | 4.8 | 11.3 | 0.00 | 0.00 | 0.00 | 31 | 1015.4 |
| 20260503001621 | 20 | 51 | 3.2 | 11.3 | 0.00 | 0.00 | 0.00 | 31 | 1015.5 |
| 20260503000051 | 20 | 319 | 3.2 | 11.3 | 0.00 | 0.00 | 0.00 | 31 | 1015.6 |
| 20260502234555 | 19 | 117 | 4.8 | 12.9 | 0.00 | 0.00 | 0.00 | 32 | 1015.8 |
| 20260502233051 | 19 | 102 | 6.4 | 14.5 | 0.00 | 0.00 | 0.00 | 32 | 1016.0 |
| 20260502231554 | 19 | 51 | 6.4 | 14.5 | 0.00 | 0.00 | 0.00 | 32 | 1016.1 |
| 20260502230054 | 19 | 22 | 4.8 | 17.7 | 0.00 | 0.00 | 0.00 | 32 | 1016.1 |
| 20260502224556 | 19 | 93 | 4.8 | 12.9 | 0.00 | 0.00 | 0.00 | 32 | 1016.3 |
| 20260502223056 | 20 | 70 | 3.2 | 11.3 | 0.00 | 0.00 | 0.00 | 32 | 1016.5 |
| 20260502221552 | 19 | 77 | 3.2 | 14.5 | 0.00 | 0.00 | 0.00 | 33 | 1016.7 |
| 20260502220053 | 19 | 266 | 0.0 | 16.1 | 0.00 | 0.00 | 0.00 | 33 | 1017.0 |
| 20260502214549 | 18 | 348 | 9.7 | 17.7 | 0.00 | 0.00 | 0.00 | 34 | 1017.2 |
| 20260502213104 | 18 | 294 | 3.2 | 14.5 | 0.00 | 0.00 | 0.00 | 33 | 1017.5 |
| 20260502211554 | 18 | 19 | 1.6 | 14.5 | 0.00 | 0.00 | 0.00 | 33 | 1017.6 |
| 20260502210054 | 18 | 333 | 6.4 | 12.9 | 0.00 | 0.00 | 0.00 | 33 | 1017.6 |
| 20260502204557 | 17 | 16 | 6.4 | 19.3 | 0.00 | 0.00 | 0.00 | 37 | 1017.7 |
| 20260502203053 | 18 | 350 | 8.0 | 22.5 | 0.00 | 0.00 | 0.00 | 35 | 1017.8 |
| 20260502201552 | 18 | 72 | 8.0 | 16.1 | 0.00 | 0.00 | 0.00 | 34 | 1018.0 |
| 20260502200119 | 18 | 266 | 1.6 | 11.3 | 0.00 | 0.00 | 0.00 | 35 | 1018.1 |
| 20260502194605 | 17 | 111 | 4.8 | 14.5 | 0.00 | 0.00 | 0.00 | 36 | 1018.2 |
| 20260502193050 | 18 | 29 | 3.2 | 16.1 | 0.00 | 0.00 | 0.00 | 35 | 1018.4 |
| 20260502191558 | 18 | 332 | 3.2 | 17.7 | 0.00 | 0.00 | 0.00 | 34 | 1018.4 |
| 20260502190055 | 17 | 298 | 9.7 | 22.5 | 0.00 | 0.00 | 0.00 | 35 | 1018.5 |
| 20260502184554 | 18 | 9 | 6.4 | 17.7 | 0.00 | 0.00 | 0.00 | 35 | 1018.6 |
| 20260502183052 | 17 | 325 | 6.4 | 17.7 | 0.00 | 0.00 | 0.00 | 36 | 1018.7 |
| 20260502181552 | 17 | 142 | 12.9 | 22.5 | 0.00 | 0.00 | 0.00 | 36 | 1019.0 |
| 20260502163053 | 16 | 49 | 12.9 | 25.7 | 0.00 | 0.00 | 0.00 | 39 | 1019.4 |
| 20260502161552 | 15 | 47 | 9.7 | 27.4 | 0.00 | 0.00 | 0.00 | 41 | 1019.5 |
| 20260502151609 | 13 | 67 | 12.9 | 22.5 | 0.00 | 0.00 | 0.00 | 43 | 1019.3 |
| 20260502150125 | 13 | 99 | 9.7 | 17.7 | 0.00 | 0.00 | 0.00 | 45 | 1019.2 |
| 20260502130105 | 7 | 328 | 3.2 | 8.0 | 0.00 | 0.00 | 0.00 | 58 | 1018.3 |
| 20260502123052 | 7 | 275 | 3.2 | 8.0 | 0.00 | 0.00 | 0.00 | 55 | 1017.8 |
| 20260502121559 | 7 | 338 | 3.2 | 6.4 | 0.00 | 0.00 | 0.00 | 54 | 1017.7 |
| 20260502120112 | 7 | 19 | 3.2 | 9.7 | 0.00 | 0.00 | 0.00 | 55 | 1017.5 |
| 20260502114557 | 7 | 314 | 4.8 | 12.9 | 0.00 | 0.00 | 0.00 | 54 | 1017.4 |
| 20260502113113 | 7 | 309 | 6.4 | 12.9 | 0.00 | 0.00 | 0.00 | 54 | 1017.2 |
| 20260502111555 | 7 | 294 | 11.3 | 16.1 | 0.00 | 0.00 | 0.00 | 53 | 1016.9 |
| 20260502104552 | 7 | 292 | 16.1 | 19.3 | 0.00 | 0.00 | 0.00 | 53 | 1016.5 |
| 20260502103110 | 7 | 275 | 4.8 | 11.3 | 0.00 | 0.00 | 0.00 | 52 | 1016.3 |
| 20260502101554 | 7 | 262 | 8.0 | 14.5 | 0.00 | 0.00 | 0.00 | 51 | 1016.2 |
| 20260502090107 | 8 | 269 | 8.0 | 12.9 | 0.00 | 0.00 | 0.00 | 47 | 1015.4 |
| 20260502070056 | 9 | 243 | 4.8 | 11.3 | 0.00 | 0.00 | 0.00 | 40 | 1015.1 |
| 20260502064554 | 9 | 292 | 6.4 | 16.1 | 0.00 | 0.00 | 0.00 | 41 | 1015.2 |
| 20260502063115 | 8 | 279 | 6.4 | 16.1 | 0.00 | 0.00 | 0.00 | 42 | 1015.0 |
| 20260502061550 | 8 | 281 | 9.7 | 14.5 | 0.00 | 0.00 | 0.00 | 43 | 1014.9 |
| 20260502054607 | 8 | 266 | 6.4 | 11.3 | 0.00 | 0.00 | 0.00 | 41 | 1014.7 |
| 20260502053101 | 9 | 243 | 8.0 | 11.3 | 0.00 | 0.00 | 0.00 | 41 | 1014.7 |
| 20260502051554 | 9 | 266 | 6.4 | 11.3 | 0.00 | 0.00 | 0.00 | 40 | 1014.7 |
| 20260502050057 | 9 | 296 | 6.4 | 12.9 | 0.00 | 0.00 | 0.00 | 39 | 1014.5 |
| 20260502044553 | 10 | 294 | 6.4 | 12.9 | 0.00 | 0.00 | 0.00 | 38 | 1014.6 |
| 20260502043057 | 11 | 259 | 9.7 | 16.1 | 0.00 | 0.00 | 0.00 | 35 | 1014.6 |
| 20260502041552 | 12 | 275 | 6.4 | 9.7 | 0.00 | 0.00 | 0.00 | 33 | 1014.7 |
| 20260502040056 | 12 | 261 | 4.8 | 11.3 | 0.00 | 0.00 | 0.00 | 32 | 1014.7 |
| 20260502034552 | 13 | 266 | 6.4 | 9.7 | 0.00 | 0.00 | 0.00 | 29 | 1014.7 |
| 20260502033053 | 14 | 248 | 6.4 | 12.9 | 0.00 | 0.00 | 0.00 | 29 | 1014.6 |
| 20260502031556 | 16 | 288 | 4.8 | 12.9 | 0.00 | 0.00 | 0.00 | 26 | 1014.4 |
| 20260502030107 | 17 | 216 | 9.7 | 12.9 | 0.00 | 0.00 | 0.00 | 25 | 1014.1 |
| 20260502024554 | 17 | 232 | 8.0 | 16.1 | 0.00 | 0.00 | 0.00 | 24 | 1014.0 |
| 20260502023102 | 17 | 215 | 8.0 | 11.3 | 0.00 | 0.00 | 0.00 | 24 | 1013.9 |
| 20260502021555 | 18 | 237 | 4.8 | 11.3 | 0.00 | 0.00 | 0.00 | 23 | 1013.8 |
| 20260502020056 | 19 | 237 | 4.8 | 11.3 | 0.00 | 0.00 | 0.00 | 21 | 1013.8 |
| 20260502014549 | 20 | 268 | 11.3 | 19.3 | 0.00 | 0.00 | 0.00 | 20 | 1013.7 |